Time;durP1;ratioP1;P1;durP2;ratioP2;P2;SDS_P1;SDS_P2;PMS_P1;PMS_P2;Temp;Humidity;BMP_temperature;BMP_pressure;BME280_temperature;BME280_humidity;BME280_pressure;Samples;Min_cycle;Max_cycle;Signal;HPM_P1;HPM_P2
2023/08/07 00:04:57;;;;;;;4.78;1.80;;;;;;;12.45;100.00;100917.69;5366129;22;20085;-75
2023/08/07 00:07:25;;;;;;;4.40;1.40;;;;;;;12.43;100.00;100915.34;4975951;28;20109;-75
2023/08/07 00:09:55;;;;;;;3.30;1.55;;;;;;;12.37;100.00;100927.41;4968284;28;20109;-79
2023/08/07 00:12:21;;;;;;;1.48;1.00;;;;;;;12.30;100.00;100919.91;4967987;28;20063;-76
2023/08/07 00:14:50;;;;;;;3.00;1.40;;;;;;;12.50;100.00;100929.16;4968987;28;20126;-75
2023/08/07 00:17:17;;;;;;;1.65;0.60;;;;;;;12.48;100.00;100935.59;4970588;28;20133;-75
2023/08/07 00:19:43;;;;;;;4.07;2.33;;;;;;;12.57;100.00;100923.44;4976441;28;20046;-76
2023/08/07 00:22:10;;;;;;;4.28;1.52;;;;;;;12.44;100.00;100935.66;4973229;28;20050;-75
2023/08/07 00:24:36;;;;;;;6.63;3.00;;;;;;;12.55;100.00;100927.09;4970332;28;20513;-75
2023/08/07 00:27:03;;;;;;;8.75;3.50;;;;;;;12.57;100.00;100944.19;4970187;28;20057;-75
2023/08/07 00:29:30;;;;;;;5.05;2.92;;;;;;;12.59;100.00;100927.81;4970178;28;20070;-77
2023/08/07 00:31:56;;;;;;;6.65;3.05;;;;;;;12.55;100.00;100927.88;4968932;28;20478;-76
2023/08/07 00:34:23;;;;;;;8.90;3.55;;;;;;;12.66;100.00;100941.63;4983512;28;20076;-75
2023/08/07 00:36:49;;;;;;;7.50;3.38;;;;;;;12.56;100.00;100945.41;4970987;28;20466;-73
2023/08/07 00:39:16;;;;;;;10.10;3.47;;;;;;;12.63;100.00;100939.69;4970653;28;20058;-75
2023/08/07 00:41:42;;;;;;;6.35;4.05;;;;;;;12.62;100.00;100947.28;4970643;28;20074;-77
2023/08/07 00:44:09;;;;;;;9.50;4.18;;;;;;;12.59;100.00;100938.97;4965467;28;20055;-74
2023/08/07 00:46:36;;;;;;;10.40;3.72;;;;;;;12.65;100.00;100946.41;4970151;28;20071;-76
2023/08/07 00:49:03;;;;;;;6.97;3.55;;;;;;;12.65;100.00;100931.69;4970592;28;20426;-76
2023/08/07 00:51:30;;;;;;;10.80;4.35;;;;;;;12.64;100.00;100944.84;4970808;28;20638;-76
2023/08/07 00:53:56;;;;;;;8.98;3.97;;;;;;;12.63;100.00;100946.06;4970493;28;20055;-76
2023/08/07 00:56:23;;;;;;;14.73;4.40;;;;;;;12.69;100.00;100949.94;4967576;28;20039;-76
2023/08/07 00:58:52;;;;;;;6.47;2.10;;;;;;;12.59;100.00;100950.13;4965309;28;20086;-76
2023/08/07 01:01:20;;;;;;;9.98;3.60;;;;;;;12.65;100.00;100948.44;4964160;28;20059;-77
2023/08/07 01:03:46;;;;;;;13.07;3.65;;;;;;;12.50;100.00;100948.66;4972348;28;20055;-76
2023/08/07 01:06:13;;;;;;;10.15;2.95;;;;;;;12.61;100.00;100947.69;4967882;28;20053;-75
2023/08/07 01:08:39;;;;;;;3.83;2.13;;;;;;;12.55;100.00;100943.84;4970803;28;20137;-75
2023/08/07 01:11:34;;;;;;;8.10;2.55;;;;;;;12.48;100.00;100944.72;4969628;28;20051;-75
2023/08/07 01:14:33;;;;;;;5.20;2.00;;;;;;;12.52;100.00;100955.84;4969200;28;20058;-80
2023/08/07 01:17:05;;;;;;;7.13;2.65;;;;;;;12.49;100.00;100949.09;4968280;28;20050;-78
2023/08/07 01:19:34;;;;;;;5.85;1.63;;;;;;;12.47;100.00;100954.31;4963167;28;20051;-76
2023/08/07 01:22:19;;;;;;;7.38;1.95;;;;;;;12.48;100.00;100944.72;4970025;28;20133;-81
2023/08/07 01:24:48;;;;;;;9.18;2.20;;;;;;;12.48;100.00;100955.88;4952165;28;20098;-78
2023/08/07 01:27:17;;;;;;;9.02;2.55;;;;;;;12.44;100.00;100947.59;4969262;28;20050;-76
2023/08/07 01:30:06;;;;;;;5.28;1.10;;;;;;;12.23;100.00;100950.69;4965619;28;20474;-76
2023/08/07 01:33:27;;;;;;;11.38;2.58;;;;;;;12.35;100.00;100952.09;4968603;28;20066;-75
2023/08/07 01:35:57;;;;;;;6.20;2.60;;;;;;;12.42;100.00;100947.22;4874210;29;20496;-80
2023/08/07 01:38:25;;;;;;;9.27;3.35;;;;;;;12.41;100.00;100942.06;4876324;29;20120;-80
2023/08/07 01:40:53;;;;;;;9.82;2.78;;;;;;;12.38;100.00;100943.72;4932689;28;20047;-76
2023/08/07 01:43:20;;;;;;;7.82;2.58;;;;;;;12.40;100.00;100954.44;4968193;28;20086;-78
2023/08/07 01:45:46;;;;;;;7.95;2.22;;;;;;;12.38;100.00;100957.66;4970088;28;20109;-76
2023/08/07 01:48:13;;;;;;;4.47;2.20;;;;;;;12.38;100.00;100945.69;4972139;28;20050;-76
2023/08/07 01:50:40;;;;;;;6.05;2.45;;;;;;;12.44;100.00;100964.31;4969007;28;20054;-78
2023/08/07 01:53:07;;;;;;;6.05;2.63;;;;;;;12.43;100.00;100959.94;4969797;28;20109;-73
2023/08/07 01:55:33;;;;;;;8.30;2.10;;;;;;;12.34;100.00;100956.91;4968980;28;20042;-77
2023/08/07 01:58:00;;;;;;;5.30;2.05;;;;;;;12.26;100.00;100961.00;4969693;28;20126;-79
2023/08/07 02:00:26;;;;;;;4.50;2.00;;;;;;;12.14;100.00;100953.25;4969542;28;20057;-79
2023/08/07 02:02:53;;;;;;;8.50;2.45;;;;;;;12.26;100.00;100961.00;4967882;28;20742;-78
2023/08/07 02:05:20;;;;;;;6.53;1.73;;;;;;;12.18;100.00;100965.13;4968966;28;20054;-77
2023/08/07 02:07:46;;;;;;;8.32;2.17;;;;;;;12.20;100.00;100956.34;4969812;28;20058;-76
2023/08/07 02:10:13;;;;;;;9.20;2.00;;;;;;;12.09;100.00;100962.06;4966729;28;20414;-76
2023/08/07 02:12:39;;;;;;;6.07;2.22;;;;;;;12.18;100.00;100964.31;4970158;28;20049;-77
2023/08/07 02:15:07;;;;;;;5.82;2.08;;;;;;;12.13;100.00;100973.19;4969444;28;20054;-77
2023/08/07 02:17:33;;;;;;;6.15;1.90;;;;;;;12.18;100.00;100969.91;4969790;28;20043;-74
2023/08/07 02:20:00;;;;;;;5.00;2.08;;;;;;;12.11;100.00;100975.59;4969279;28;20051;-77
2023/08/07 02:22:26;;;;;;;5.93;1.80;;;;;;;12.13;100.00;100979.53;4976719;28;20164;-78
2023/08/07 02:24:53;;;;;;;3.60;1.73;;;;;;;12.18;100.00;100975.47;4969129;28;20046;-77
2023/08/07 02:27:19;;;;;;;1.40;1.00;;;;;;;12.12;100.00;100979.97;4969459;28;20109;-77
2023/08/07 02:29:46;;;;;;;8.82;2.95;;;;;;;12.21;100.00;100981.00;4969789;28;20089;-75
2023/08/07 02:32:12;;;;;;;8.80;2.33;;;;;;;12.22;100.00;100967.84;4970255;28;20078;-74
2023/08/07 02:34:39;;;;;;;4.35;1.80;;;;;;;12.32;100.00;100978.81;4972744;28;20502;-78
2023/08/07 02:37:05;;;;;;;2.95;1.85;;;;;;;12.13;100.00;100981.53;4967086;28;20055;-81
2023/08/07 02:39:32;;;;;;;3.28;1.85;;;;;;;12.31;100.00;100982.84;4973086;28;20074;-76
2023/08/07 02:41:58;;;;;;;7.43;3.15;;;;;;;12.35;100.00;100982.75;4972126;28;20497;-75
2023/08/07 02:44:25;;;;;;;7.05;2.58;;;;;;;12.37;100.00;100980.38;4972055;28;20105;-79
2023/08/07 02:46:52;;;;;;;6.25;2.33;;;;;;;12.35;100.00;100993.91;4972052;28;20455;-77
2023/08/07 02:49:19;;;;;;;11.77;3.35;;;;;;;12.39;100.00;100978.75;4971652;28;20047;-76
2023/08/07 02:51:45;;;;;;;9.68;3.00;;;;;;;12.38;100.00;100981.94;4972658;28;20058;-75
2023/08/07 02:54:12;;;;;;;7.22;2.92;;;;;;;12.42;100.00;100975.09;4972515;28;20059;-76
2023/08/07 02:56:38;;;;;;;8.60;2.90;;;;;;;12.35;100.00;100974.41;4972171;28;20121;-77
2023/08/07 02:59:05;;;;;;;7.57;2.97;;;;;;;12.39;100.00;100973.16;4972832;28;20050;-76
2023/08/07 03:01:32;;;;;;;11.20;3.70;;;;;;;12.43;100.00;100970.31;4975337;28;20070;-76
2023/08/07 03:03:59;;;;;;;7.55;3.30;;;;;;;12.41;100.00;100972.75;4971784;28;20117;-76
2023/08/07 03:06:26;;;;;;;7.50;2.80;;;;;;;12.39;100.00;100984.31;4971288;28;20054;-79
2023/08/07 03:08:52;;;;;;;10.23;4.00;;;;;;;12.40;100.00;100973.97;4964604;28;20075;-76
2023/08/07 03:11:19;;;;;;;11.27;2.90;;;;;;;12.40;100.00;100976.75;4971252;28;20051;-75
2023/08/07 03:13:45;;;;;;;4.80;2.47;;;;;;;12.30;100.00;100972.09;4970671;28;20060;-74
2023/08/07 03:16:12;;;;;;;9.38;3.67;;;;;;;12.36;100.00;100971.22;4970055;28;20579;-76
2023/08/07 03:18:38;;;;;;;6.78;1.92;;;;;;;12.22;100.00;100977.00;4972603;28;20509;-77
2023/08/07 03:21:05;;;;;;;5.32;2.13;;;;;;;12.28;100.00;100968.94;4972322;28;20522;-76
2023/08/07 03:23:31;;;;;;;5.50;2.22;;;;;;;12.33;100.00;100980.41;4972214;28;20136;-76
2023/08/07 03:26:12;;;;;;;6.38;2.03;;;;;;;12.27;100.00;100987.69;4969051;28;20046;-79
2023/08/07 03:28:46;;;;;;;5.07;2.13;;;;;;;12.26;100.00;100982.53;4966156;28;20050;-78
2023/08/07 03:31:14;;;;;;;9.20;2.60;;;;;;;12.25;100.00;100987.31;4968374;28;20482;-76
2023/08/07 03:33:41;;;;;;;10.15;2.47;;;;;;;12.26;100.00;100983.28;4971980;28;20046;-81
2023/08/07 03:36:09;;;;;;;14.55;3.15;;;;;;;12.27;100.00;100978.53;4953937;28;20043;-76
2023/08/07 03:38:35;;;;;;;12.10;2.90;;;;;;;12.30;100.00;100981.25;4954662;28;20050;-79
2023/08/07 03:41:02;;;;;;;12.05;3.08;;;;;;;12.33;100.00;100979.63;4971251;28;20047;-83
2023/08/07 03:43:29;;;;;;;13.75;3.20;;;;;;;12.33;100.00;100974.81;4970949;28;20511;-79
2023/08/07 03:45:58;;;;;;;16.30;3.08;;;;;;;12.31;100.00;100982.84;4970900;28;20078;-76
2023/08/07 03:48:28;;;;;;;13.77;3.50;;;;;;;12.30;100.00;100989.59;4972001;28;20043;-75
2023/08/07 03:51:05;;;;;;;3.90;1.17;;;;;;;12.12;100.00;100980.75;4971163;28;20078;-76
2023/08/07 03:53:32;;;;;;;8.18;1.98;;;;;;;12.22;100.00;100990.94;4946980;28;20051;-73
2023/08/07 03:55:58;;;;;;;9.70;2.97;;;;;;;12.15;100.00;100996.63;4969200;28;20134;-83
2023/08/07 03:58:25;;;;;;;11.45;3.53;;;;;;;12.18;100.00;100986.63;4971755;28;20047;-75
2023/08/07 04:00:52;;;;;;;8.57;3.00;;;;;;;12.14;100.00;100995.06;4972139;28;20473;-76
2023/08/07 04:03:20;;;;;;;8.68;2.53;;;;;;;12.12;100.00;100991.88;4971520;28;20129;-76
2023/08/07 04:05:51;;;;;;;11.52;2.78;;;;;;;12.11;100.00;100993.09;4969640;28;20055;-76
2023/08/07 04:08:17;;;;;;;13.35;3.53;;;;;;;12.11;100.00;100990.31;4970681;28;20093;-76
2023/08/07 04:10:44;;;;;;;9.80;3.17;;;;;;;12.05;100.00;100983.63;4971852;28;20043;-76
2023/08/07 04:13:10;;;;;;;14.30;4.60;;;;;;;12.04;100.00;100992.41;4971126;28;20086;-75
2023/08/07 04:15:37;;;;;;;16.33;4.80;;;;;;;12.09;100.00;100989.94;4969713;28;20505;-75
2023/08/07 04:18:03;;;;;;;16.13;4.60;;;;;;;12.10;100.00;100996.31;4971169;28;20659;-76
2023/08/07 04:20:31;;;;;;;13.50;3.80;;;;;;;12.08;100.00;100993.16;4971235;28;20414;-77
2023/08/07 04:22:57;;;;;;;16.05;3.72;;;;;;;12.07;100.00;100986.00;4971292;28;20046;-75
2023/08/07 04:25:24;;;;;;;11.63;3.92;;;;;;;11.91;100.00;101000.56;4971712;28;20125;-80
2023/08/07 04:27:50;;;;;;;16.60;4.95;;;;;;;12.04;100.00;100998.78;4971001;28;20125;-76
2023/08/07 04:30:17;;;;;;;15.60;4.15;;;;;;;12.03;100.00;101002.78;4970308;28;20134;-72
2023/08/07 04:32:44;;;;;;;16.60;5.85;;;;;;;11.99;100.00;100999.25;4970101;28;20105;-75
2023/08/07 04:35:10;;;;;;;13.55;4.82;;;;;;;11.98;100.00;100994.09;4968603;28;20055;-79
2023/08/07 04:37:37;;;;;;;14.88;5.20;;;;;;;12.03;100.00;100991.66;4968976;28;20565;-76
2023/08/07 04:40:04;;;;;;;6.85;2.13;;;;;;;11.75;100.00;100991.25;4971013;28;20035;-76
2023/08/07 04:42:32;;;;;;;21.08;5.05;;;;;;;11.95;100.00;101009.66;4970106;28;20698;-75
2023/08/07 04:44:58;;;;;;;6.85;2.88;;;;;;;11.91;100.00;101005.34;4969913;28;20053;-75
2023/08/07 04:47:27;;;;;;;20.55;5.53;;;;;;;11.91;100.00;101008.94;4970922;28;20051;-76
2023/08/07 04:49:53;;;;;;;10.80;3.28;;;;;;;11.81;100.00;101007.06;4970637;28;20054;-77
2023/08/07 04:52:20;;;;;;;20.17;5.47;;;;;;;11.98;100.00;101017.19;4970787;28;20474;-76
2023/08/07 04:54:52;;;;;;;20.38;5.82;;;;;;;11.97;100.00;101010.03;4970412;28;20065;-77
2023/08/07 04:57:18;;;;;;;12.63;3.80;;;;;;;11.88;100.00;101009.75;4969295;28;20126;-76
2023/08/07 04:59:45;;;;;;;14.27;3.17;;;;;;;11.83;100.00;101010.25;4970931;28;20051;-79
2023/08/07 05:02:11;;;;;;;18.20;5.32;;;;;;;12.01;100.00;101007.19;4970745;28;20431;-79
2023/08/07 05:04:38;;;;;;;7.15;2.75;;;;;;;11.80;100.00;101011.06;4968540;28;20082;-75
2023/08/07 05:07:05;;;;;;;13.82;3.95;;;;;;;11.89;100.00;101019.69;4969296;28;20043;-76
2023/08/07 05:09:31;;;;;;;12.80;4.40;;;;;;;11.91;100.00;101019.28;4973385;28;20210;-77
2023/08/07 05:11:58;;;;;;;14.07;4.03;;;;;;;11.92;100.00;101010.50;4970438;28;20150;-74
2023/08/07 05:14:24;;;;;;;20.63;5.60;;;;;;;11.91;100.00;101016.47;4968035;28;20173;-77
2023/08/07 05:16:51;;;;;;;11.13;4.13;;;;;;;11.94;100.00;101016.44;4970448;28;20051;-75
2023/08/07 05:19:18;;;;;;;12.93;4.70;;;;;;;11.86;100.00;101019.75;4970067;28;20058;-76
2023/08/07 05:21:44;;;;;;;8.55;2.42;;;;;;;11.65;100.00;101025.59;4970279;28;20047;-78
2023/08/07 05:24:12;;;;;;;13.13;3.75;;;;;;;11.92;100.00;101018.84;4967585;28;20438;-80
2023/08/07 05:26:38;;;;;;;9.63;2.38;;;;;;;11.73;100.00;101022.31;4969151;28;20154;-77
2023/08/07 05:29:06;;;;;;;4.68;2.13;;;;;;;11.63;100.00;101014.09;4970483;28;20047;-75
2023/08/07 05:31:33;;;;;;;3.92;1.55;;;;;;;11.74;100.00;101025.88;4969343;28;20054;-72
2023/08/07 05:34:00;;;;;;;13.07;3.35;;;;;;;11.83;100.00;101031.72;4969344;28;20129;-78
2023/08/07 05:36:26;;;;;;;13.30;3.50;;;;;;;11.88;100.00;101025.69;4969267;28;20051;-76
2023/08/07 05:38:53;;;;;;;18.20;4.88;;;;;;;11.80;100.00;101032.56;4970459;28;20114;-75
2023/08/07 05:41:19;;;;;;;13.02;2.80;;;;;;;11.85;100.00;101030.09;4969084;28;20481;-76
2023/08/07 05:43:46;;;;;;;5.55;2.20;;;;;;;11.81;100.00;101039.69;4969184;28;20055;-79
2023/08/07 05:46:13;;;;;;;22.15;5.43;;;;;;;11.95;100.00;101033.97;4969413;28;20051;-76
2023/08/07 05:48:39;;;;;;;14.25;4.03;;;;;;;11.95;100.00;101033.97;4970561;28;20050;-76
2023/08/07 05:51:07;;;;;;;16.02;3.95;;;;;;;11.97;100.00;101035.13;4970407;28;20105;-77
2023/08/07 05:53:35;;;;;;;14.25;3.65;;;;;;;11.88;100.00;101047.97;4968745;28;20050;-76
2023/08/07 05:56:02;;;;;;;15.85;3.30;;;;;;;11.87;100.00;101043.59;4967759;28;20081;-77
2023/08/07 05:58:28;;;;;;;12.85;3.65;;;;;;;11.94;100.00;101044.31;4964097;28;20117;-76
2023/08/07 06:00:55;;;;;;;15.13;4.28;;;;;;;11.99;100.00;101057.75;4970478;28;20549;-78
2023/08/07 06:03:21;;;;;;;5.20;2.00;;;;;;;11.82;100.00;101050.44;4969920;28;20047;-77
2023/08/07 06:05:48;;;;;;;6.38;1.98;;;;;;;11.81;100.00;101051.66;4967615;28;20514;-76
2023/08/07 06:08:14;;;;;;;13.65;4.55;;;;;;;11.91;100.00;101063.84;4970937;28;20117;-76
2023/08/07 06:10:41;;;;;;;4.68;1.65;;;;;;;11.91;100.00;101055.50;4973864;28;20129;-80
2023/08/07 06:13:08;;;;;;;16.95;3.97;;;;;;;11.93;100.00;101058.66;4972401;28;20047;-76
2023/08/07 06:15:40;;;;;;;16.13;5.22;;;;;;;12.02;100.00;101056.94;4972634;28;20047;-78
2023/08/07 06:18:06;;;;;;;17.30;5.20;;;;;;;12.12;100.00;101075.50;4972064;28;20286;-77
2023/08/07 06:20:33;;;;;;;13.40;5.30;;;;;;;12.09;100.00;101065.19;4973280;28;20114;-75
2023/08/07 06:23:00;;;;;;;14.95;5.60;;;;;;;12.17;100.00;101069.47;4971397;28;20129;-75
2023/08/07 06:25:27;;;;;;;18.63;5.53;;;;;;;12.21;100.00;101070.19;4973105;28;20054;-75
2023/08/07 06:27:54;;;;;;;16.77;6.15;;;;;;;12.29;100.00;101073.69;4973097;28;20130;-77
2023/08/07 06:30:20;;;;;;;12.80;4.65;;;;;;;12.19;100.00;101077.41;4964989;28;20058;-75
2023/08/07 06:32:47;;;;;;;14.20;5.15;;;;;;;12.19;100.00;101072.59;4971826;28;20097;-75
2023/08/07 06:35:13;;;;;;;12.63;5.13;;;;;;;12.27;100.00;101078.88;4969738;28;20497;-75
2023/08/07 06:37:41;;;;;;;2.65;1.55;;;;;;;12.19;100.00;101092.13;4971759;28;20130;-78
2023/08/07 06:40:08;;;;;;;21.17;5.95;;;;;;;12.31;100.00;101088.78;4955769;28;20085;-74
2023/08/07 06:42:34;;;;;;;17.63;4.65;;;;;;;12.37;100.00;101101.06;4972496;28;20058;-77
2023/08/07 06:45:01;;;;;;;9.88;2.92;;;;;;;12.24;100.00;101097.25;4973104;28;20055;-75
2023/08/07 06:47:27;;;;;;;15.13;5.13;;;;;;;12.44;100.00;101098.19;4967108;28;20097;-73
2023/08/07 06:49:54;;;;;;;11.57;4.47;;;;;;;12.47;100.00;101090.97;4972826;28;20098;-78
2023/08/07 06:52:20;;;;;;;7.30;3.42;;;;;;;12.28;100.00;101097.97;4971709;28;20185;-72
2023/08/07 06:54:47;;;;;;;11.10;3.88;;;;;;;12.44;100.00;101103.75;4971393;28;20538;-76
2023/08/07 06:57:14;;;;;;;10.07;3.90;;;;;;;12.49;100.00;101111.63;4967230;28;20070;-76
2023/08/07 06:59:42;;;;;;;8.77;3.22;;;;;;;12.40;100.00;101111.34;4958310;28;20086;-79
2023/08/07 07:02:09;;;;;;;12.77;3.15;;;;;;;12.43;100.00;101121.69;4970013;28;20133;-80
2023/08/07 07:04:36;;;;;;;7.97;3.70;;;;;;;12.43;100.00;101116.09;4970803;28;20108;-77
2023/08/07 07:07:03;;;;;;;8.38;3.65;;;;;;;12.48;100.00;101116.88;4971468;28;20122;-79
2023/08/07 07:09:30;;;;;;;8.98;3.70;;;;;;;12.44;100.00;101123.28;4958588;28;20058;-77
2023/08/07 07:11:56;;;;;;;7.80;2.75;;;;;;;12.44;100.00;101133.63;4972767;28;20050;-81
2023/08/07 07:14:23;;;;;;;6.15;2.10;;;;;;;12.42;100.00;101130.47;4969028;28;20582;-78
2023/08/07 07:16:50;;;;;;;5.82;2.05;;;;;;;12.31;100.00;101127.81;4955101;28;20116;-78
2023/08/07 07:19:16;;;;;;;4.03;1.95;;;;;;;12.38;100.00;101140.88;4968526;28;20105;-77
2023/08/07 07:21:43;;;;;;;6.20;2.88;;;;;;;12.41;100.00;101138.06;4970946;28;20078;-80
2023/08/07 07:24:10;;;;;;;10.82;4.20;;;;;;;12.50;100.00;101151.47;4968711;28;20051;-79
2023/08/07 07:26:36;;;;;;;11.45;4.13;;;;;;;12.43;100.00;101155.13;4970992;28;20474;-78
2023/08/07 07:29:03;;;;;;;11.32;4.55;;;;;;;12.43;100.00;101155.13;4966959;28;20121;-77
2023/08/07 07:31:29;;;;;;;14.15;5.68;;;;;;;12.55;100.00;101170.50;4967202;28;20497;-77
2023/08/07 07:33:56;;;;;;;14.23;5.40;;;;;;;12.52;100.00;101171.34;4970833;28;20065;-80
2023/08/07 07:36:23;;;;;;;9.52;4.18;;;;;;;12.53;100.00;101170.16;4969763;28;20508;-76
2023/08/07 07:38:49;;;;;;;11.88;4.55;;;;;;;12.57;100.00;101182.81;4969153;28;20105;-77
2023/08/07 07:41:17;;;;;;;14.32;3.25;;;;;;;12.56;100.00;101179.69;4971436;28;20050;-77
2023/08/07 07:43:43;;;;;;;9.23;3.58;;;;;;;12.57;100.00;101199.56;4968408;28;20074;-80
2023/08/07 07:46:10;;;;;;;9.55;3.00;;;;;;;12.51;100.00;101189.31;4971608;28;20047;-77
2023/08/07 07:48:37;;;;;;;8.07;3.25;;;;;;;12.63;100.00;101199.09;4971676;28;20129;-77
2023/08/07 07:51:04;;;;;;;16.23;6.25;;;;;;;12.71;100.00;101193.00;4969056;28;20655;-81
2023/08/07 07:53:30;;;;;;;12.77;4.88;;;;;;;12.70;100.00;101210.97;4963110;28;20058;-76
2023/08/07 07:55:57;;;;;;;12.73;5.20;;;;;;;12.78;100.00;101198.47;4971709;28;20105;-75
2023/08/07 07:58:24;;;;;;;4.05;2.25;;;;;;;12.68;100.00;101207.78;4971611;28;20093;-77
2023/08/07 08:00:53;;;;;;;11.40;4.57;;;;;;;12.86;100.00;101210.34;4969374;28;20104;-77
2023/08/07 08:03:21;;;;;;;19.15;4.40;;;;;;;12.95;100.00;101210.56;4969295;28;20051;-80
2023/08/07 08:05:51;;;;;;;14.32;3.53;;;;;;;12.97;100.00;101217.34;4971002;28;20058;-77
2023/08/07 08:08:19;;;;;;;11.25;3.42;;;;;;;13.07;100.00;101221.97;4970739;28;20046;-82
2023/08/07 08:10:47;;;;;;;8.73;2.63;;;;;;;13.06;100.00;101209.19;4967844;28;20066;-72
2023/08/07 08:13:15;;;;;;;5.43;1.95;;;;;;;13.08;100.00;101212.38;4949899;28;20058;-77
2023/08/07 08:15:43;;;;;;;12.65;4.35;;;;;;;13.08;100.00;101217.16;4970658;28;20050;-77
2023/08/07 08:18:10;;;;;;;6.65;2.00;;;;;;;13.11;100.00;101219.91;4952591;28;20055;-77
2023/08/07 08:20:38;;;;;;;5.10;2.03;;;;;;;13.16;100.00;101211.03;4970129;28;20138;-78
2023/08/07 08:23:05;;;;;;;5.97;2.22;;;;;;;13.25;100.00;101230.03;4969986;28;20051;-78
2023/08/07 08:25:35;;;;;;;8.80;2.28;;;;;;;13.37;100.00;101235.03;4970805;28;20043;-79
2023/08/07 08:28:01;;;;;;;13.05;3.28;;;;;;;13.39;100.00;101254.94;4968276;28;20916;-79
2023/08/07 08:30:28;;;;;;;8.32;2.50;;;;;;;13.40;100.00;101248.16;4968398;28;20086;-77
2023/08/07 08:32:55;;;;;;;13.27;2.60;;;;;;;13.31;100.00;101239.53;4952084;28;20147;-79
2023/08/07 08:35:22;;;;;;;5.40;2.13;;;;;;;13.36;100.00;101259.38;4955237;28;20054;-77
2023/08/07 08:37:49;;;;;;;1.88;0.55;;;;;;;13.17;100.00;101248.13;4963792;28;20070;-77
2023/08/07 08:40:17;;;;;;;6.00;1.63;;;;;;;13.32;100.00;101246.69;4970755;28;20050;-78
2023/08/07 08:42:45;;;;;;;10.23;2.35;;;;;;;13.37;100.00;101257.38;4969381;28;20156;-78
2023/08/07 08:45:14;;;;;;;8.80;2.50;;;;;;;13.38;100.00;101256.97;4965429;28;20069;-79
2023/08/07 08:47:46;;;;;;;16.33;2.90;;;;;;;13.45;100.00;101259.66;4968544;28;20098;-77
2023/08/07 08:50:14;;;;;;;13.55;2.97;;;;;;;13.61;100.00;101262.56;4967518;28;20098;-77
2023/08/07 08:52:44;;;;;;;17.45;4.40;;;;;;;13.66;100.00;101253.72;4969003;28;20514;-77
2023/08/07 08:55:12;;;;;;;18.75;4.97;;;;;;;13.85;100.00;101254.97;4968437;28;20056;-76
2023/08/07 08:57:40;;;;;;;18.77;5.47;;;;;;;13.88;100.00;101260.50;4963640;28;20102;-77
2023/08/07 09:00:17;;;;;;;22.90;6.82;;;;;;;14.06;100.00;101260.16;4970379;28;20136;-78
2023/08/07 09:02:45;;;;;;;22.58;6.85;;;;;;;14.15;100.00;101263.97;4982197;28;20126;-78
2023/08/07 09:05:12;;;;;;;22.33;5.70;;;;;;;14.20;100.00;101257.09;4970944;28;20534;-79
2023/08/07 09:07:39;;;;;;;23.35;7.43;;;;;;;14.21;100.00;101239.88;4969017;28;20047;-77
2023/08/07 09:10:06;;;;;;;20.52;5.28;;;;;;;14.36;100.00;101251.59;4970174;28;20514;-77
2023/08/07 09:12:35;;;;;;;24.50;7.07;;;;;;;14.36;100.00;101252.38;4969566;28;20047;-77
2023/08/07 09:15:05;;;;;;;14.07;5.35;;;;;;;14.37;100.00;101236.38;4968162;28;20146;-77
2023/08/07 09:17:35;;;;;;;18.13;5.43;;;;;;;14.36;100.00;101221.63;4970438;28;20082;-76
2023/08/07 09:20:04;;;;;;;20.30;5.00;;;;;;;14.33;100.00;101222.47;4970323;28;20581;-77
2023/08/07 09:22:30;;;;;;;14.93;4.20;;;;;;;14.42;100.00;101221.94;4952338;28;20443;-80
2023/08/07 09:24:59;;;;;;;11.02;3.63;;;;;;;14.62;100.00;101215.06;4968041;28;20080;-78
2023/08/07 09:27:26;;;;;;;16.83;4.60;;;;;;;14.82;100.00;101224.22;4969180;28;20042;-77
2023/08/07 09:29:55;;;;;;;6.40;1.67;;;;;;;14.82;100.00;101213.03;4968465;28;20094;-78
2023/08/07 09:32:23;;;;;;;20.58;5.35;;;;;;;14.87;100.00;101215.31;4965528;28;20059;-77
2023/08/07 09:34:51;;;;;;;16.45;4.50;;;;;;;15.01;100.00;101211.38;4964828;28;20133;-77
2023/08/07 09:37:18;;;;;;;21.00;5.60;;;;;;;14.98;100.00;101191.88;4967359;28;20616;-76
2023/08/07 09:39:46;;;;;;;9.35;2.92;;;;;;;15.03;100.00;101172.53;4950413;28;20055;-73
2023/08/07 09:42:15;;;;;;;18.13;4.40;;;;;;;15.34;100.00;101187.75;4964031;28;20054;-77
2023/08/07 09:44:42;;;;;;;12.98;3.50;;;;;;;15.60;100.00;101186.72;4967701;28;20050;-78
2023/08/07 09:47:13;;;;;;;12.50;3.47;;;;;;;15.64;100.00;101173.41;4967477;28;20070;-79
2023/08/07 09:49:41;;;;;;;12.13;3.58;;;;;;;15.75;100.00;101173.09;4968532;28;20407;-77
2023/08/07 09:52:09;;;;;;;15.63;3.63;;;;;;;15.55;100.00;101152.81;4969322;28;20482;-77
2023/08/07 09:54:37;;;;;;;16.85;4.60;;;;;;;15.60;100.00;101160.69;4974983;28;20154;-77
2023/08/07 09:57:04;;;;;;;18.40;4.10;;;;;;;15.44;100.00;101185.94;4971990;28;20043;-76
2023/08/07 09:59:32;;;;;;;15.43;5.20;;;;;;;14.99;100.00;101181.00;4975040;28;20802;-75
2023/08/07 10:02:03;;;;;;;12.60;3.10;;;;;;;14.95;100.00;101199.13;4976457;28;20047;-75
2023/08/07 10:04:30;;;;;;;10.98;2.90;;;;;;;14.87;100.00;101197.72;4974868;28;20129;-79
2023/08/07 10:06:58;;;;;;;19.55;3.42;;;;;;;14.57;100.00;101192.41;4975260;28;20054;-78
2023/08/07 10:09:27;;;;;;;11.60;3.22;;;;;;;14.67;100.00;101197.78;4972041;28;20055;-78
2023/08/07 10:11:54;;;;;;;5.88;1.67;;;;;;;14.63;100.00;101207.47;4971593;28;20046;-76
2023/08/07 10:14:22;;;;;;;8.23;3.33;;;;;;;14.62;100.00;101200.31;4972740;28;20811;-77
2023/08/07 10:16:49;;;;;;;12.90;3.58;;;;;;;14.83;100.00;101217.38;4973320;28;20053;-77
2023/08/07 10:19:16;;;;;;;5.47;1.50;;;;;;;14.91;100.00;101226.41;4966478;28;20074;-81
2023/08/07 10:21:43;;;;;;;12.77;3.47;;;;;;;15.06;100.00;101227.69;4972428;28;20452;-77
2023/08/07 10:24:10;;;;;;;14.38;4.07;;;;;;;15.25;100.00;101237.22;4969172;28;20078;-77
2023/08/07 10:26:44;;;;;;;13.75;3.28;;;;;;;15.44;100.00;101234.38;4958600;28;20093;-74
2023/08/07 10:29:16;;;;;;;7.97;2.75;;;;;;;15.69;100.00;101248.53;4975191;28;20047;-75
2023/08/07 10:31:44;;;;;;;9.52;2.50;;;;;;;15.74;100.00;101219.19;4969117;28;20502;-75
2023/08/07 10:34:11;;;;;;;15.32;4.07;;;;;;;15.89;100.00;101209.94;4971828;28;20054;-79
2023/08/07 10:36:40;;;;;;;15.00;3.58;;;;;;;16.12;100.00;101197.69;4979058;28;20727;-77
2023/08/07 10:39:08;;;;;;;8.90;2.80;;;;;;;16.34;100.00;101219.09;4973557;28;20114;-80
2023/08/07 10:41:52;;;;;;;14.20;3.47;;;;;;;16.20;100.00;101177.41;4975384;28;20113;-71
2023/08/07 10:44:19;;;;;;;16.23;3.28;;;;;;;16.54;100.00;101188.84;4977886;28;20144;-79
2023/08/07 10:46:48;;;;;;;25.25;4.38;;;;;;;16.68;100.00;101179.19;4975207;28;20499;-78
2023/08/07 10:49:37;;;;;;;11.13;3.40;;;;;;;16.34;100.00;101159.41;4959907;28;20050;-78
2023/08/07 10:52:14;;;;;;;21.90;4.80;;;;;;;16.63;100.00;101172.13;4959315;28;20050;-79
2023/08/07 10:54:47;;;;;;;12.43;3.85;;;;;;;16.68;100.00;101165.94;4979452;28;20643;-79
2023/08/07 10:57:16;;;;;;;16.58;3.88;;;;;;;16.88;100.00;101174.91;4972541;28;20127;-77
2023/08/07 10:59:50;;;;;;;13.73;4.20;;;;;;;17.13;100.00;101165.72;4967244;28;20078;-77
2023/08/07 11:02:25;;;;;;;11.48;3.25;;;;;;;17.47;100.00;101170.59;4970931;28;20133;-76
2023/08/07 11:04:53;;;;;;;16.85;3.00;;;;;;;17.50;100.00;101162.03;4972698;28;20507;-77
2023/08/07 11:07:28;;;;;;;10.50;3.30;;;;;;;17.60;100.00;101160.09;4969644;28;20054;-78
2023/08/07 11:09:56;;;;;;;11.18;2.75;;;;;;;17.48;100.00;101149.69;4976938;28;20046;-77
2023/08/07 11:12:26;;;;;;;12.70;3.30;;;;;;;17.59;100.00;101141.66;4973290;28;20082;-76
2023/08/07 11:14:56;;;;;;;9.43;2.75;;;;;;;17.83;100.00;101154.03;4965728;28;20043;-77
2023/08/07 11:17:27;;;;;;;9.35;2.60;;;;;;;17.47;100.00;101146.09;4969964;28;20130;-80
2023/08/07 11:19:55;;;;;;;15.82;4.05;;;;;;;17.64;100.00;101150.28;4968363;28;20047;-78